sensor_id;sensor_type;location;lat;lon;timestamp;P1;durP1;ratioP1;P2;durP2;ratioP2
36995;SDS011;22905;50.340;10.776;2024-03-23T00:56:28;18.75;;;11.45;;
36995;SDS011;22905;50.340;10.776;2024-03-23T01:01:28;20.77;;;12.57;;
36995;SDS011;22905;50.340;10.776;2024-03-23T01:06:28;25.70;;;13.05;;
36995;SDS011;22905;50.340;10.776;2024-03-23T01:11:29;20.55;;;11.93;;
36995;SDS011;22905;50.340;10.776;2024-03-23T01:16:29;19.58;;;11.85;;
36995;SDS011;22905;50.340;10.776;2024-03-23T01:21:29;27.17;;;13.47;;
36995;SDS011;22905;50.340;10.776;2024-03-23T01:26:30;23.05;;;13.02;;
36995;SDS011;22905;50.340;10.776;2024-03-23T01:31:30;22.27;;;11.43;;
36995;SDS011;22905;50.340;10.776;2024-03-23T01:36:30;32.13;;;14.65;;
36995;SDS011;22905;50.340;10.776;2024-03-23T01:41:30;27.70;;;15.45;;
36995;SDS011;22905;50.340;10.776;2024-03-23T01:46:31;27.25;;;14.68;;
36995;SDS011;22905;50.340;10.776;2024-03-23T01:51:31;33.10;;;15.23;;
36995;SDS011;22905;50.340;10.776;2024-03-23T01:56:35;34.20;;;17.33;;
36995;SDS011;22905;50.340;10.776;2024-03-23T02:01:35;32.67;;;16.70;;
36995;SDS011;22905;50.340;10.776;2024-03-23T02:06:36;27.58;;;15.52;;
36995;SDS011;22905;50.340;10.776;2024-03-23T02:11:36;26.30;;;14.38;;
36995;SDS011;22905;50.340;10.776;2024-03-23T02:16:36;24.65;;;12.82;;
36995;SDS011;22905;50.340;10.776;2024-03-23T02:21:37;43.03;;;18.55;;
36995;SDS011;22905;50.340;10.776;2024-03-23T02:26:37;32.92;;;16.85;;
36995;SDS011;22905;50.340;10.776;2024-03-23T02:31:37;29.75;;;15.23;;
36995;SDS011;22905;50.340;10.776;2024-03-23T02:36:39;28.52;;;15.23;;
36995;SDS011;22905;50.340;10.776;2024-03-23T02:41:39;21.23;;;12.25;;
36995;SDS011;22905;50.340;10.776;2024-03-23T02:46:39;19.30;;;9.67;;
36995;SDS011;22905;50.340;10.776;2024-03-23T02:51:40;16.05;;;9.85;;
36995;SDS011;22905;50.340;10.776;2024-03-23T02:56:41;20.30;;;9.73;;
36995;SDS011;22905;50.340;10.776;2024-03-23T03:01:41;17.30;;;10.27;;
36995;SDS011;22905;50.340;10.776;2024-03-23T03:06:41;32.67;;;10.35;;
36995;SDS011;22905;50.340;10.776;2024-03-23T03:11:41;18.20;;;10.55;;
36995;SDS011;22905;50.340;10.776;2024-03-23T03:16:42;19.80;;;11.67;;
36995;SDS011;22905;50.340;10.776;2024-03-23T03:21:42;25.50;;;10.77;;
36995;SDS011;22905;50.340;10.776;2024-03-23T03:26:42;23.70;;;11.45;;
36995;SDS011;22905;50.340;10.776;2024-03-23T03:31:43;18.20;;;10.02;;
36995;SDS011;22905;50.340;10.776;2024-03-23T03:36:43;15.93;;;9.38;;
36995;SDS011;22905;50.340;10.776;2024-03-23T03:41:44;18.60;;;9.73;;
36995;SDS011;22905;50.340;10.776;2024-03-23T03:46:44;19.77;;;12.02;;
36995;SDS011;22905;50.340;10.776;2024-03-23T03:51:44;21.48;;;11.77;;
36995;SDS011;22905;50.340;10.776;2024-03-23T03:56:45;20.25;;;11.25;;
36995;SDS011;22905;50.340;10.776;2024-03-23T04:01:45;19.05;;;10.43;;
36995;SDS011;22905;50.340;10.776;2024-03-23T04:06:45;19.50;;;12.02;;
36995;SDS011;22905;50.340;10.776;2024-03-23T04:11:46;24.45;;;12.52;;
36995;SDS011;22905;50.340;10.776;2024-03-23T04:16:46;21.58;;;13.13;;
36995;SDS011;22905;50.340;10.776;2024-03-23T04:21:46;21.13;;;12.73;;
36995;SDS011;22905;50.340;10.776;2024-03-23T04:26:46;19.67;;;11.65;;
36995;SDS011;22905;50.340;10.776;2024-03-23T04:31:47;17.58;;;10.90;;
36995;SDS011;22905;50.340;10.776;2024-03-23T04:36:47;24.55;;;12.95;;
36995;SDS011;22905;50.340;10.776;2024-03-23T04:41:47;23.58;;;13.38;;
36995;SDS011;22905;50.340;10.776;2024-03-23T04:46:48;29.38;;;14.02;;
36995;SDS011;22905;50.340;10.776;2024-03-23T04:51:48;26.65;;;15.63;;
36995;SDS011;22905;50.340;10.776;2024-03-23T04:56:48;35.67;;;17.30;;
36995;SDS011;22905;50.340;10.776;2024-03-23T05:01:48;32.53;;;16.23;;
36995;SDS011;22905;50.340;10.776;2024-03-23T05:06:49;33.03;;;17.83;;
36995;SDS011;22905;50.340;10.776;2024-03-23T05:11:49;30.10;;;16.40;;
36995;SDS011;22905;50.340;10.776;2024-03-23T05:16:49;29.45;;;17.42;;
36995;SDS011;22905;50.340;10.776;2024-03-23T05:21:50;25.98;;;16.23;;
36995;SDS011;22905;50.340;10.776;2024-03-23T05:26:50;27.85;;;16.42;;
36995;SDS011;22905;50.340;10.776;2024-03-23T05:31:51;27.15;;;15.82;;
36995;SDS011;22905;50.340;10.776;2024-03-23T05:36:52;34.97;;;19.83;;
36995;SDS011;22905;50.340;10.776;2024-03-23T05:41:52;28.27;;;17.70;;
36995;SDS011;22905;50.340;10.776;2024-03-23T05:46:52;32.08;;;17.67;;
36995;SDS011;22905;50.340;10.776;2024-03-23T05:51:52;35.00;;;18.40;;
36995;SDS011;22905;50.340;10.776;2024-03-23T05:56:56;30.63;;;18.13;;
36995;SDS011;22905;50.340;10.776;2024-03-23T06:01:56;31.45;;;17.10;;
36995;SDS011;22905;50.340;10.776;2024-03-23T06:06:57;34.40;;;17.45;;
36995;SDS011;22905;50.340;10.776;2024-03-23T06:11:57;29.33;;;17.30;;
36995;SDS011;22905;50.340;10.776;2024-03-23T06:16:58;31.83;;;18.77;;
36995;SDS011;22905;50.340;10.776;2024-03-23T06:21:59;28.70;;;16.00;;
36995;SDS011;22905;50.340;10.776;2024-03-23T06:26:59;28.13;;;16.42;;
36995;SDS011;22905;50.340;10.776;2024-03-23T06:31:59;28.35;;;17.40;;
36995;SDS011;22905;50.340;10.776;2024-03-23T06:37:00;28.40;;;15.20;;
36995;SDS011;22905;50.340;10.776;2024-03-23T06:42:00;26.10;;;16.93;;
36995;SDS011;22905;50.340;10.776;2024-03-23T06:47:00;38.05;;;19.55;;
36995;SDS011;22905;50.340;10.776;2024-03-23T06:52:00;27.77;;;16.02;;
36995;SDS011;22905;50.340;10.776;2024-03-23T06:57:01;25.50;;;13.80;;
36995;SDS011;22905;50.340;10.776;2024-03-23T07:02:01;22.58;;;13.20;;
36995;SDS011;22905;50.340;10.776;2024-03-23T07:07:02;24.45;;;14.00;;
36995;SDS011;22905;50.340;10.776;2024-03-23T07:12:02;19.92;;;10.85;;
36995;SDS011;22905;50.340;10.776;2024-03-23T07:17:03;18.27;;;10.65;;
36995;SDS011;22905;50.340;10.776;2024-03-23T07:22:03;13.80;;;9.20;;
36995;SDS011;22905;50.340;10.776;2024-03-23T07:27:03;10.13;;;6.53;;
36995;SDS011;22905;50.340;10.776;2024-03-23T07:32:04;9.48;;;6.15;;
36995;SDS011;22905;50.340;10.776;2024-03-23T07:37:04;6.22;;;4.75;;
36995;SDS011;22905;50.340;10.776;2024-03-23T07:42:05;3.58;;;2.55;;
36995;SDS011;22905;50.340;10.776;2024-03-23T07:47:06;2.28;;;1.38;;
36995;SDS011;22905;50.340;10.776;2024-03-23T07:52:06;3.83;;;1.50;;
36995;SDS011;22905;50.340;10.776;2024-03-23T07:57:08;6.95;;;2.30;;
36995;SDS011;22905;50.340;10.776;2024-03-23T08:02:08;1.23;;;1.07;;
36995;SDS011;22905;50.340;10.776;2024-03-23T08:07:08;0.50;;;0.50;;
36995;SDS011;22905;50.340;10.776;2024-03-23T08:12:09;0.70;;;0.70;;
36995;SDS011;22905;50.340;10.776;2024-03-23T08:17:09;0.73;;;0.73;;
36995;SDS011;22905;50.340;10.776;2024-03-23T08:22:09;0.50;;;0.50;;
36995;SDS011;22905;50.340;10.776;2024-03-23T08:27:10;0.70;;;0.70;;
36995;SDS011;22905;50.340;10.776;2024-03-23T08:32:10;1.55;;;0.50;;
36995;SDS011;22905;50.340;10.776;2024-03-23T08:37:12;0.60;;;0.60;;
36995;SDS011;22905;50.340;10.776;2024-03-23T08:42:12;0.60;;;0.60;;
36995;SDS011;22905;50.340;10.776;2024-03-23T08:47:12;1.13;;;0.80;;
36995;SDS011;22905;50.340;10.776;2024-03-23T08:52:12;0.50;;;0.50;;
36995;SDS011;22905;50.340;10.776;2024-03-23T08:57:13;0.60;;;0.60;;
36995;SDS011;22905;50.340;10.776;2024-03-23T09:02:13;0.70;;;0.70;;
36995;SDS011;22905;50.340;10.776;2024-03-23T09:07:13;1.15;;;0.73;;
36995;SDS011;22905;50.340;10.776;2024-03-23T09:12:14;0.60;;;0.60;;
36995;SDS011;22905;50.340;10.776;2024-03-23T09:17:14;1.00;;;0.70;;
36995;SDS011;22905;50.340;10.776;2024-03-23T09:22:14;1.13;;;0.85;;
36995;SDS011;22905;50.340;10.776;2024-03-23T09:27:15;2.50;;;1.75;;
36995;SDS011;22905;50.340;10.776;2024-03-23T09:32:15;1.98;;;1.42;;
36995;SDS011;22905;50.340;10.776;2024-03-23T09:37:15;2.95;;;1.40;;
36995;SDS011;22905;50.340;10.776;2024-03-23T09:42:15;2.25;;;1.40;;
36995;SDS011;22905;50.340;10.776;2024-03-23T09:47:16;1.55;;;1.13;;
36995;SDS011;22905;50.340;10.776;2024-03-23T09:52:17;10.48;;;1.88;;
36995;SDS011;22905;50.340;10.776;2024-03-23T09:57:17;4.60;;;1.97;;
36995;SDS011;22905;50.340;10.776;2024-03-23T10:02:17;5.90;;;2.55;;
36995;SDS011;22905;50.340;10.776;2024-03-23T10:07:20;5.80;;;1.90;;
36995;SDS011;22905;50.340;10.776;2024-03-23T10:12:22;5.05;;;1.70;;
36995;SDS011;22905;50.340;10.776;2024-03-23T10:17:23;8.02;;;2.00;;
36995;SDS011;22905;50.340;10.776;2024-03-23T10:22:24;12.25;;;3.83;;
36995;SDS011;22905;50.340;10.776;2024-03-23T10:27:24;11.88;;;5.97;;
36995;SDS011;22905;50.340;10.776;2024-03-23T10:32:25;13.02;;;4.75;;
36995;SDS011;22905;50.340;10.776;2024-03-23T10:37:25;10.20;;;4.47;;
36995;SDS011;22905;50.340;10.776;2024-03-23T10:42:25;12.57;;;3.85;;
36995;SDS011;22905;50.340;10.776;2024-03-23T10:47:26;10.30;;;2.97;;
36995;SDS011;22905;50.340;10.776;2024-03-23T10:52:26;11.03;;;3.30;;
36995;SDS011;22905;50.340;10.776;2024-03-23T10:57:40;12.68;;;4.40;;
36995;SDS011;22905;50.340;10.776;2024-03-23T11:02:41;10.85;;;4.03;;
36995;SDS011;22905;50.340;10.776;2024-03-23T11:07:48;12.30;;;4.37;;
36995;SDS011;22905;50.340;10.776;2024-03-23T11:12:49;12.77;;;4.78;;
36995;SDS011;22905;50.340;10.776;2024-03-23T11:18:05;8.40;;;3.20;;
36995;SDS011;22905;50.340;10.776;2024-03-23T11:23:08;11.70;;;3.38;;
36995;SDS011;22905;50.340;10.776;2024-03-23T11:28:27;14.38;;;4.65;;
36995;SDS011;22905;50.340;10.776;2024-03-23T11:33:27;10.50;;;4.28;;
36995;SDS011;22905;50.340;10.776;2024-03-23T11:38:29;13.77;;;4.75;;
36995;SDS011;22905;50.340;10.776;2024-03-23T11:43:29;10.25;;;5.13;;
36995;SDS011;22905;50.340;10.776;2024-03-23T11:48:29;9.90;;;4.20;;
36995;SDS011;22905;50.340;10.776;2024-03-23T11:53:29;9.55;;;3.90;;
36995;SDS011;22905;50.340;10.776;2024-03-23T11:58:30;14.43;;;4.55;;
36995;SDS011;22905;50.340;10.776;2024-03-23T12:03:31;9.23;;;4.28;;
36995;SDS011;22905;50.340;10.776;2024-03-23T12:08:35;8.73;;;4.07;;
36995;SDS011;22905;50.340;10.776;2024-03-23T12:13:36;6.07;;;2.33;;
36995;SDS011;22905;50.340;10.776;2024-03-23T12:18:36;6.47;;;2.67;;
36995;SDS011;22905;50.340;10.776;2024-03-23T12:23:40;5.28;;;2.28;;
36995;SDS011;22905;50.340;10.776;2024-03-23T12:28:42;7.85;;;3.40;;
36995;SDS011;22905;50.340;10.776;2024-03-23T12:33:42;6.07;;;2.88;;
36995;SDS011;22905;50.340;10.776;2024-03-23T12:38:42;10.32;;;3.00;;
36995;SDS011;22905;50.340;10.776;2024-03-23T12:43:44;10.40;;;3.73;;
36995;SDS011;22905;50.340;10.776;2024-03-23T12:48:45;6.15;;;2.85;;
36995;SDS011;22905;50.340;10.776;2024-03-23T12:53:45;15.00;;;3.38;;
36995;SDS011;22905;50.340;10.776;2024-03-23T12:58:45;7.68;;;3.17;;
36995;SDS011;22905;50.340;10.776;2024-03-23T13:03:50;6.70;;;3.35;;
36995;SDS011;22905;50.340;10.776;2024-03-23T13:08:50;6.25;;;3.53;;
36995;SDS011;22905;50.340;10.776;2024-03-23T13:13:50;9.07;;;2.30;;
36995;SDS011;22905;50.340;10.776;2024-03-23T13:18:51;6.82;;;1.85;;
36995;SDS011;22905;50.340;10.776;2024-03-23T13:23:51;6.10;;;1.92;;
36995;SDS011;22905;50.340;10.776;2024-03-23T13:28:51;9.07;;;2.20;;
36995;SDS011;22905;50.340;10.776;2024-03-23T13:33:52;10.60;;;1.90;;
36995;SDS011;22905;50.340;10.776;2024-03-23T13:38:52;7.50;;;1.90;;
36995;SDS011;22905;50.340;10.776;2024-03-23T13:43:52;9.02;;;1.75;;
36995;SDS011;22905;50.340;10.776;2024-03-23T13:48:53;6.07;;;2.95;;
36995;SDS011;22905;50.340;10.776;2024-03-23T13:53:53;8.27;;;2.40;;
36995;SDS011;22905;50.340;10.776;2024-03-23T13:58:55;9.60;;;3.60;;
36995;SDS011;22905;50.340;10.776;2024-03-23T14:03:56;11.10;;;3.20;;
36995;SDS011;22905;50.340;10.776;2024-03-23T14:08:56;6.88;;;2.78;;
36995;SDS011;22905;50.340;10.776;2024-03-23T14:13:56;8.82;;;2.72;;
36995;SDS011;22905;50.340;10.776;2024-03-23T14:18:57;4.73;;;2.30;;
36995;SDS011;22905;50.340;10.776;2024-03-23T14:23:57;7.00;;;2.60;;
36995;SDS011;22905;50.340;10.776;2024-03-23T14:28:57;7.50;;;3.00;;
36995;SDS011;22905;50.340;10.776;2024-03-23T14:33:58;4.80;;;1.90;;
36995;SDS011;22905;50.340;10.776;2024-03-23T14:38:59;7.78;;;2.17;;
36995;SDS011;22905;50.340;10.776;2024-03-23T14:43:59;5.07;;;2.08;;
36995;SDS011;22905;50.340;10.776;2024-03-23T14:49:00;4.97;;;2.00;;
36995;SDS011;22905;50.340;10.776;2024-03-23T14:54:01;9.20;;;2.35;;
36995;SDS011;22905;50.340;10.776;2024-03-23T14:59:02;10.65;;;2.97;;
36995;SDS011;22905;50.340;10.776;2024-03-23T15:04:03;4.22;;;1.90;;
36995;SDS011;22905;50.340;10.776;2024-03-23T15:09:03;4.88;;;1.50;;
36995;SDS011;22905;50.340;10.776;2024-03-23T15:14:08;6.43;;;2.00;;
36995;SDS011;22905;50.340;10.776;2024-03-23T15:19:10;4.85;;;2.78;;
36995;SDS011;22905;50.340;10.776;2024-03-23T15:24:10;7.85;;;3.22;;
36995;SDS011;22905;50.340;10.776;2024-03-23T15:29:11;8.80;;;2.77;;
36995;SDS011;22905;50.340;10.776;2024-03-23T15:34:16;3.00;;;1.45;;
36995;SDS011;22905;50.340;10.776;2024-03-23T15:39:17;4.60;;;1.50;;
36995;SDS011;22905;50.340;10.776;2024-03-23T15:44:17;6.05;;;1.70;;
36995;SDS011;22905;50.340;10.776;2024-03-23T15:49:18;8.32;;;3.22;;
36995;SDS011;22905;50.340;10.776;2024-03-23T15:54:18;7.68;;;1.95;;
36995;SDS011;22905;50.340;10.776;2024-03-23T15:59:18;2.25;;;1.40;;
36995;SDS011;22905;50.340;10.776;2024-03-23T16:04:18;6.88;;;2.22;;
36995;SDS011;22905;50.340;10.776;2024-03-23T16:09:19;4.15;;;2.05;;
36995;SDS011;22905;50.340;10.776;2024-03-23T16:14:19;2.53;;;1.80;;
36995;SDS011;22905;50.340;10.776;2024-03-23T16:19:20;3.97;;;2.40;;
36995;SDS011;22905;50.340;10.776;2024-03-23T16:24:22;4.90;;;2.42;;
36995;SDS011;22905;50.340;10.776;2024-03-23T16:29:22;3.03;;;1.67;;
36995;SDS011;22905;50.340;10.776;2024-03-23T16:34:22;6.18;;;2.10;;
36995;SDS011;22905;50.340;10.776;2024-03-23T16:39:23;7.78;;;2.25;;
36995;SDS011;22905;50.340;10.776;2024-03-23T16:44:23;3.85;;;2.25;;
36995;SDS011;22905;50.340;10.776;2024-03-23T16:49:23;5.33;;;2.97;;
36995;SDS011;22905;50.340;10.776;2024-03-23T16:54:24;4.40;;;3.22;;
36995;SDS011;22905;50.340;10.776;2024-03-23T16:59:24;28.83;;;9.35;;
36995;SDS011;22905;50.340;10.776;2024-03-23T17:04:24;8.90;;;3.72;;
36995;SDS011;22905;50.340;10.776;2024-03-23T17:09:25;8.52;;;4.82;;
36995;SDS011;22905;50.340;10.776;2024-03-23T17:14:27;7.03;;;4.88;;
36995;SDS011;22905;50.340;10.776;2024-03-23T17:19:28;13.90;;;6.50;;
36995;SDS011;22905;50.340;10.776;2024-03-23T17:24:28;8.02;;;4.22;;
36995;SDS011;22905;50.340;10.776;2024-03-23T17:29:28;8.43;;;5.05;;
36995;SDS011;22905;50.340;10.776;2024-03-23T17:34:29;13.27;;;6.25;;
36995;SDS011;22905;50.340;10.776;2024-03-23T17:39:32;5.72;;;3.30;;
36995;SDS011;22905;50.340;10.776;2024-03-23T17:44:32;7.03;;;5.18;;
36995;SDS011;22905;50.340;10.776;2024-03-23T17:49:33;6.82;;;5.57;;
36995;SDS011;22905;50.340;10.776;2024-03-23T17:54:33;7.38;;;5.43;;
36995;SDS011;22905;50.340;10.776;2024-03-23T17:59:34;5.83;;;3.47;;
36995;SDS011;22905;50.340;10.776;2024-03-23T18:04:34;12.40;;;7.55;;
36995;SDS011;22905;50.340;10.776;2024-03-23T18:09:34;9.75;;;5.88;;
36995;SDS011;22905;50.340;10.776;2024-03-23T18:14:35;22.43;;;14.00;;
36995;SDS011;22905;50.340;10.776;2024-03-23T18:19:35;5.75;;;4.30;;
36995;SDS011;22905;50.340;10.776;2024-03-23T18:24:35;9.63;;;6.57;;
36995;SDS011;22905;50.340;10.776;2024-03-23T18:29:36;9.70;;;6.87;;
36995;SDS011;22905;50.340;10.776;2024-03-23T18:34:36;22.23;;;15.67;;
36995;SDS011;22905;50.340;10.776;2024-03-23T18:39:37;11.95;;;7.78;;
36995;SDS011;22905;50.340;10.776;2024-03-23T18:44:37;9.00;;;5.70;;
36995;SDS011;22905;50.340;10.776;2024-03-23T18:49:37;15.45;;;11.50;;
36995;SDS011;22905;50.340;10.776;2024-03-23T18:54:38;9.68;;;3.83;;
36995;SDS011;22905;50.340;10.776;2024-03-23T18:59:38;7.30;;;4.38;;
36995;SDS011;22905;50.340;10.776;2024-03-23T19:04:38;7.40;;;6.70;;
36995;SDS011;22905;50.340;10.776;2024-03-23T19:09:38;4.82;;;3.30;;
36995;SDS011;22905;50.340;10.776;2024-03-23T19:14:39;4.15;;;3.63;;
36995;SDS011;22905;50.340;10.776;2024-03-23T19:19:40;4.20;;;3.40;;
36995;SDS011;22905;50.340;10.776;2024-03-23T19:24:41;6.75;;;2.75;;
36995;SDS011;22905;50.340;10.776;2024-03-23T19:29:41;5.68;;;3.70;;
36995;SDS011;22905;50.340;10.776;2024-03-23T19:34:42;4.32;;;3.08;;
36995;SDS011;22905;50.340;10.776;2024-03-23T19:39:42;7.03;;;4.32;;
36995;SDS011;22905;50.340;10.776;2024-03-23T19:44:42;9.32;;;4.35;;
36995;SDS011;22905;50.340;10.776;2024-03-23T19:49:43;5.95;;;4.07;;
36995;SDS011;22905;50.340;10.776;2024-03-23T19:54:43;10.70;;;5.93;;
36995;SDS011;22905;50.340;10.776;2024-03-23T19:59:43;11.93;;;3.38;;
36995;SDS011;22905;50.340;10.776;2024-03-23T20:04:44;4.15;;;3.03;;
36995;SDS011;22905;50.340;10.776;2024-03-23T20:09:44;7.05;;;2.75;;
36995;SDS011;22905;50.340;10.776;2024-03-23T20:14:44;5.13;;;3.07;;
36995;SDS011;22905;50.340;10.776;2024-03-23T20:19:45;6.50;;;4.00;;
36995;SDS011;22905;50.340;10.776;2024-03-23T20:24:46;2.53;;;2.30;;
36995;SDS011;22905;50.340;10.776;2024-03-23T20:29:46;8.95;;;4.80;;
36995;SDS011;22905;50.340;10.776;2024-03-23T20:34:47;7.65;;;2.83;;
36995;SDS011;22905;50.340;10.776;2024-03-23T20:39:48;4.45;;;2.88;;
36995;SDS011;22905;50.340;10.776;2024-03-23T20:44:48;4.57;;;2.50;;
36995;SDS011;22905;50.340;10.776;2024-03-23T20:49:48;3.60;;;2.33;;
36995;SDS011;22905;50.340;10.776;2024-03-23T20:54:49;5.28;;;2.45;;
36995;SDS011;22905;50.340;10.776;2024-03-23T20:59:49;3.47;;;2.05;;
36995;SDS011;22905;50.340;10.776;2024-03-23T21:04:49;3.53;;;2.42;;
36995;SDS011;22905;50.340;10.776;2024-03-23T21:09:50;3.27;;;2.80;;
36995;SDS011;22905;50.340;10.776;2024-03-23T21:14:50;7.07;;;4.15;;
36995;SDS011;22905;50.340;10.776;2024-03-23T21:19:50;9.13;;;4.63;;
36995;SDS011;22905;50.340;10.776;2024-03-23T21:24:51;15.93;;;7.68;;
36995;SDS011;22905;50.340;10.776;2024-03-23T21:29:51;26.80;;;14.68;;
36995;SDS011;22905;50.340;10.776;2024-03-23T21:34:52;6.88;;;3.58;;
36995;SDS011;22905;50.340;10.776;2024-03-23T21:39:52;7.37;;;3.23;;
36995;SDS011;22905;50.340;10.776;2024-03-23T21:44:52;6.68;;;2.70;;
36995;SDS011;22905;50.340;10.776;2024-03-23T21:49:53;4.75;;;2.53;;
36995;SDS011;22905;50.340;10.776;2024-03-23T21:54:53;4.57;;;2.55;;
36995;SDS011;22905;50.340;10.776;2024-03-23T21:59:53;3.08;;;2.47;;
36995;SDS011;22905;50.340;10.776;2024-03-23T22:04:54;3.63;;;2.50;;
36995;SDS011;22905;50.340;10.776;2024-03-23T22:09:55;3.45;;;2.60;;
36995;SDS011;22905;50.340;10.776;2024-03-23T22:14:55;4.60;;;3.22;;
36995;SDS011;22905;50.340;10.776;2024-03-23T22:19:55;9.32;;;4.15;;
36995;SDS011;22905;50.340;10.776;2024-03-23T22:24:55;6.45;;;3.20;;
36995;SDS011;22905;50.340;10.776;2024-03-23T22:29:56;5.35;;;3.28;;
36995;SDS011;22905;50.340;10.776;2024-03-23T22:34:56;5.47;;;3.08;;
36995;SDS011;22905;50.340;10.776;2024-03-23T22:39:56;7.45;;;4.18;;
36995;SDS011;22905;50.340;10.776;2024-03-23T22:44:57;5.93;;;3.67;;
36995;SDS011;22905;50.340;10.776;2024-03-23T22:49:57;4.82;;;3.85;;
36995;SDS011;22905;50.340;10.776;2024-03-23T22:54:57;7.30;;;3.75;;
36995;SDS011;22905;50.340;10.776;2024-03-23T22:59:58;7.70;;;3.38;;
36995;SDS011;22905;50.340;10.776;2024-03-23T23:04:58;8.38;;;4.05;;
36995;SDS011;22905;50.340;10.776;2024-03-23T23:09:59;4.95;;;3.75;;
36995;SDS011;22905;50.340;10.776;2024-03-23T23:14:59;5.00;;;2.83;;
36995;SDS011;22905;50.340;10.776;2024-03-23T23:20:00;8.88;;;3.20;;
36995;SDS011;22905;50.340;10.776;2024-03-23T23:25:00;8.57;;;4.10;;
36995;SDS011;22905;50.340;10.776;2024-03-23T23:30:01;13.35;;;4.93;;
36995;SDS011;22905;50.340;10.776;2024-03-23T23:35:02;3.77;;;3.37;;
36995;SDS011;22905;50.340;10.776;2024-03-23T23:40:03;9.77;;;3.97;;
36995;SDS011;22905;50.340;10.776;2024-03-23T23:45:04;7.50;;;3.53;;
36995;SDS011;22905;50.340;10.776;2024-03-23T23:50:05;5.90;;;3.67;;
36995;SDS011;22905;50.340;10.776;2024-03-23T23:55:05;7.93;;;3.67;;
